sensor_id;sensor_type;location;lat;lon;timestamp;pressure;altitude;pressure_sealevel;temperature;humidity
57234;BME280;43090;52.604;13.318;2023-07-13T00:00:38;100765.56;;;19.03;65.71
57234;BME280;43090;52.604;13.318;2023-07-13T00:03:05;100757.91;;;19.06;65.18
57234;BME280;43090;52.604;13.318;2023-07-13T00:05:31;100763.69;;;19.11;65.18
57234;BME280;43090;52.604;13.318;2023-07-13T00:07:58;100763.81;;;18.93;66.01
57234;BME280;43090;52.604;13.318;2023-07-13T00:10:25;100755.69;;;19.02;65.56
57234;BME280;43090;52.604;13.318;2023-07-13T00:12:52;100746.88;;;19.00;66.53
57234;BME280;43090;52.604;13.318;2023-07-13T00:15:24;100743.16;;;19.01;66.37
57234;BME280;43090;52.604;13.318;2023-07-13T00:17:54;100740.44;;;19.09;65.92
57234;BME280;43090;52.604;13.318;2023-07-13T00:20:22;100753.72;;;19.20;65.24
57234;BME280;43090;52.604;13.318;2023-07-13T00:22:52;100746.75;;;19.18;64.83
57234;BME280;43090;52.604;13.318;2023-07-13T00:25:21;100757.91;;;19.06;65.44
57234;BME280;43090;52.604;13.318;2023-07-13T00:27:48;100758.09;;;19.13;65.25
57234;BME280;43090;52.604;13.318;2023-07-13T00:30:15;100755.00;;;19.00;65.90
57234;BME280;43090;52.604;13.318;2023-07-13T00:32:41;100752.47;;;19.06;65.53
57234;BME280;43090;52.604;13.318;2023-07-13T00:35:08;100764.69;;;19.02;65.59
57234;BME280;43090;52.604;13.318;2023-07-13T00:37:35;100757.88;;;18.98;65.57
57234;BME280;43090;52.604;13.318;2023-07-13T00:40:05;100752.16;;;19.01;65.09
57234;BME280;43090;52.604;13.318;2023-07-13T00:42:33;100748.91;;;18.63;67.27
57234;BME280;43090;52.604;13.318;2023-07-13T00:47:38;100766.97;;;18.54;67.30
57234;BME280;43090;52.604;13.318;2023-07-13T00:50:08;100766.19;;;18.36;67.87
57234;BME280;43090;52.604;13.318;2023-07-13T00:52:36;100755.34;;;18.09;69.70
57234;BME280;43090;52.604;13.318;2023-07-13T00:55:04;100755.03;;;18.39;68.49
57234;BME280;43090;52.604;13.318;2023-07-13T00:57:31;100753.69;;;18.43;68.22
57234;BME280;43090;52.604;13.318;2023-07-13T00:59:59;100738.09;;;18.37;68.19
57234;BME280;43090;52.604;13.318;2023-07-13T01:02:28;100749.13;;;18.17;69.62
57234;BME280;43090;52.604;13.318;2023-07-13T01:04:56;100722.63;;;18.29;68.27
57234;BME280;43090;52.604;13.318;2023-07-13T01:07:22;100752.75;;;18.52;68.15
57234;BME280;43090;52.604;13.318;2023-07-13T01:09:49;100723.41;;;18.21;68.13
57234;BME280;43090;52.604;13.318;2023-07-13T01:12:15;100766.66;;;18.57;67.74
57234;BME280;43090;52.604;13.318;2023-07-13T01:14:42;100759.69;;;18.02;69.41
57234;BME280;43090;52.604;13.318;2023-07-13T01:17:10;100766.81;;;18.29;68.54
57234;BME280;43090;52.604;13.318;2023-07-13T01:19:43;100755.34;;;18.36;68.19
57234;BME280;43090;52.604;13.318;2023-07-13T01:22:16;100765.97;;;18.29;69.02
57234;BME280;43090;52.604;13.318;2023-07-13T01:24:46;100760.13;;;18.15;69.09
57234;BME280;43090;52.604;13.318;2023-07-13T01:27:16;100764.75;;;18.23;68.79
57234;BME280;43090;52.604;13.318;2023-07-13T01:29:44;100772.34;;;18.20;69.07
57234;BME280;43090;52.604;13.318;2023-07-13T01:32:20;100755.31;;;18.27;68.72
57234;BME280;43090;52.604;13.318;2023-07-13T01:34:52;100774.09;;;18.29;69.25
57234;BME280;43090;52.604;13.318;2023-07-13T01:51:44;100770.56;;;16.92;76.24
57234;BME280;43090;52.604;13.318;2023-07-13T01:54:10;100768.28;;;17.15;76.19
57234;BME280;43090;52.604;13.318;2023-07-13T01:56:37;100748.31;;;17.44;74.19
57234;BME280;43090;52.604;13.318;2023-07-13T01:59:03;100757.84;;;17.67;73.45
57234;BME280;43090;52.604;13.318;2023-07-13T02:01:30;100760.22;;;17.70;72.95
57234;BME280;43090;52.604;13.318;2023-07-13T02:03:56;100771.13;;;17.78;72.71
57234;BME280;43090;52.604;13.318;2023-07-13T02:06:23;100741.88;;;17.63;72.45
57234;BME280;43090;52.604;13.318;2023-07-13T02:08:52;100760.28;;;17.78;72.64
57234;BME280;43090;52.604;13.318;2023-07-13T02:11:19;100751.72;;;17.64;72.33
57234;BME280;43090;52.604;13.318;2023-07-13T02:13:45;100768.81;;;17.83;72.03
57234;BME280;43090;52.604;13.318;2023-07-13T02:16:12;100762.00;;;17.79;72.18
57234;BME280;43090;52.604;13.318;2023-07-13T02:18:39;100771.50;;;17.83;71.62
57234;BME280;43090;52.604;13.318;2023-07-13T02:21:06;100783.22;;;18.02;70.98
57234;BME280;43090;52.604;13.318;2023-07-13T02:23:32;100773.31;;;17.92;71.09
57234;BME280;43090;52.604;13.318;2023-07-13T02:25:59;100777.25;;;17.80;71.97
57234;BME280;43090;52.604;13.318;2023-07-13T02:28:26;100769.84;;;17.64;72.43
57234;BME280;43090;52.604;13.318;2023-07-13T02:30:53;100784.97;;;17.75;72.10
57234;BME280;43090;52.604;13.318;2023-07-13T02:33:19;100776.41;;;17.79;72.20
57234;BME280;43090;52.604;13.318;2023-07-13T02:35:46;100774.53;;;17.80;71.74
57234;BME280;43090;52.604;13.318;2023-07-13T02:38:12;100765.97;;;17.67;72.92
57234;BME280;43090;52.604;13.318;2023-07-13T02:40:39;100783.97;;;17.58;73.39
57234;BME280;43090;52.604;13.318;2023-07-13T02:43:06;100772.16;;;17.59;73.62
57234;BME280;43090;52.604;13.318;2023-07-13T02:45:32;100763.88;;;17.60;73.61
57234;BME280;43090;52.604;13.318;2023-07-13T02:47:59;100745.13;;;17.67;73.32
57234;BME280;43090;52.604;13.318;2023-07-13T02:50:25;100761.72;;;17.82;72.48
57234;BME280;43090;52.604;13.318;2023-07-13T02:52:52;100768.19;;;17.89;72.71
57234;BME280;43090;52.604;13.318;2023-07-13T02:55:18;100769.03;;;17.90;72.32
57234;BME280;43090;52.604;13.318;2023-07-13T02:57:45;100756.91;;;17.76;72.66
57234;BME280;43090;52.604;13.318;2023-07-13T03:00:12;100738.19;;;17.64;72.23
57234;BME280;43090;52.604;13.318;2023-07-13T03:02:38;100752.50;;;17.75;72.04
57234;BME280;43090;52.604;13.318;2023-07-13T03:05:05;100794.88;;;17.84;71.72
57234;BME280;43090;52.604;13.318;2023-07-13T03:07:32;100796.34;;;17.60;72.52
57234;BME280;43090;52.604;13.318;2023-07-13T03:09:59;100800.41;;;17.74;72.21
57234;BME280;43090;52.604;13.318;2023-07-13T03:12:25;100786.00;;;17.56;72.24
57234;BME280;43090;52.604;13.318;2023-07-13T03:14:52;100812.53;;;17.70;72.14
57234;BME280;43090;52.604;13.318;2023-07-13T03:17:18;100803.91;;;17.39;72.93
57234;BME280;43090;52.604;13.318;2023-07-13T03:19:45;100811.53;;;17.53;72.52
57234;BME280;43090;52.604;13.318;2023-07-13T03:22:19;100814.44;;;17.42;72.92
57234;BME280;43090;52.604;13.318;2023-07-13T03:24:46;100805.16;;;17.44;72.39
57234;BME280;43090;52.604;13.318;2023-07-13T03:27:13;100810.13;;;17.49;72.25
57234;BME280;43090;52.604;13.318;2023-07-13T03:29:39;100796.72;;;17.47;72.42
57234;BME280;43090;52.604;13.318;2023-07-13T03:32:06;100807.25;;;17.51;72.20
57234;BME280;43090;52.604;13.318;2023-07-13T03:34:33;100816.38;;;17.49;72.43
57234;BME280;43090;52.604;13.318;2023-07-13T03:36:59;100812.28;;;17.45;72.58
57234;BME280;43090;52.604;13.318;2023-07-13T03:39:26;100819.47;;;17.55;72.31
57234;BME280;43090;52.604;13.318;2023-07-13T03:41:53;100815.47;;;17.59;72.67
57234;BME280;43090;52.604;13.318;2023-07-13T03:44:19;100821.00;;;17.39;73.34
57234;BME280;43090;52.604;13.318;2023-07-13T03:46:46;100816.44;;;17.40;73.06
57234;BME280;43090;52.604;13.318;2023-07-13T03:49:12;100822.50;;;17.52;73.11
57234;BME280;43090;52.604;13.318;2023-07-13T03:51:39;100824.19;;;17.53;72.62
57234;BME280;43090;52.604;13.318;2023-07-13T03:54:05;100815.22;;;17.52;72.87
57234;BME280;43090;52.604;13.318;2023-07-13T03:56:32;100820.25;;;17.47;73.44
57234;BME280;43090;52.604;13.318;2023-07-13T03:59:00;100833.25;;;17.61;73.14
57234;BME280;43090;52.604;13.318;2023-07-13T04:01:26;100823.75;;;17.57;73.34
57234;BME280;43090;52.604;13.318;2023-07-13T04:03:53;100834.66;;;17.65;72.87
57234;BME280;43090;52.604;13.318;2023-07-13T04:06:22;100827.84;;;17.61;73.12
57234;BME280;43090;52.604;13.318;2023-07-13T04:08:55;100838.75;;;17.70;73.19
57234;BME280;43090;52.604;13.318;2023-07-13T04:11:24;100831.00;;;17.75;73.19
57234;BME280;43090;52.604;13.318;2023-07-13T04:13:51;100837.44;;;17.74;73.39
57234;BME280;43090;52.604;13.318;2023-07-13T04:16:18;100830.56;;;17.79;73.54
57234;BME280;43090;52.604;13.318;2023-07-13T04:18:47;100833.78;;;17.83;73.77
57234;BME280;43090;52.604;13.318;2023-07-13T04:21:14;100830.41;;;17.81;73.86
57234;BME280;43090;52.604;13.318;2023-07-13T04:23:41;100835.16;;;17.97;73.36
57234;BME280;43090;52.604;13.318;2023-07-13T04:26:08;100831.59;;;17.96;73.31
57234;BME280;43090;52.604;13.318;2023-07-13T04:28:35;100836.00;;;17.97;73.53
57234;BME280;43090;52.604;13.318;2023-07-13T04:31:02;100841.25;;;17.99;73.47
57234;BME280;43090;52.604;13.318;2023-07-13T04:33:30;100842.59;;;18.13;73.41
57234;BME280;43090;52.604;13.318;2023-07-13T04:35:57;100841.56;;;18.14;73.87
57234;BME280;43090;52.604;13.318;2023-07-13T04:38:26;100846.56;;;18.27;72.58
57234;BME280;43090;52.604;13.318;2023-07-13T04:40:59;100851.59;;;18.40;72.00
57234;BME280;43090;52.604;13.318;2023-07-13T04:43:27;100851.38;;;18.33;72.12
57234;BME280;43090;52.604;13.318;2023-07-13T04:45:54;100857.00;;;18.40;71.61
57234;BME280;43090;52.604;13.318;2023-07-13T04:48:22;100863.19;;;18.50;71.29
57234;BME280;43090;52.604;13.318;2023-07-13T04:50:54;100847.34;;;18.37;71.56
57234;BME280;43090;52.604;13.318;2023-07-13T04:53:21;100861.81;;;18.46;71.60
57234;BME280;43090;52.604;13.318;2023-07-13T04:55:48;100859.50;;;18.33;71.04
57234;BME280;43090;52.604;13.318;2023-07-13T04:58:14;100861.53;;;18.57;71.39
57234;BME280;43090;52.604;13.318;2023-07-13T05:00:41;100859.91;;;18.64;71.45
57234;BME280;43090;52.604;13.318;2023-07-13T05:03:07;100854.94;;;18.60;70.96
57234;BME280;43090;52.604;13.318;2023-07-13T05:05:34;100859.28;;;18.71;70.00
57234;BME280;43090;52.604;13.318;2023-07-13T05:08:01;100861.53;;;18.57;69.93
57234;BME280;43090;52.604;13.318;2023-07-13T05:10:31;100857.88;;;18.67;70.59
57234;BME280;43090;52.604;13.318;2023-07-13T05:12:58;100855.72;;;18.70;70.58
57234;BME280;43090;52.604;13.318;2023-07-13T05:15:24;100864.44;;;18.82;69.22
57234;BME280;43090;52.604;13.318;2023-07-13T05:17:51;100856.25;;;18.74;69.64
57234;BME280;43090;52.604;13.318;2023-07-13T05:20:18;100857.00;;;18.84;69.63
57234;BME280;43090;52.604;13.318;2023-07-13T05:22:45;100855.34;;;18.91;69.80
57234;BME280;43090;52.604;13.318;2023-07-13T05:25:15;100863.88;;;18.96;69.79
57234;BME280;43090;52.604;13.318;2023-07-13T05:27:42;100871.19;;;19.04;69.57
57234;BME280;43090;52.604;13.318;2023-07-13T05:30:08;100849.84;;;18.83;69.42
57234;BME280;43090;52.604;13.318;2023-07-13T05:32:37;100862.50;;;18.92;69.14
57234;BME280;43090;52.604;13.318;2023-07-13T05:35:04;100866.66;;;19.13;68.93
57234;BME280;43090;52.604;13.318;2023-07-13T05:37:31;100855.66;;;19.14;68.26
57234;BME280;43090;52.604;13.318;2023-07-13T05:39:58;100845.38;;;18.92;69.31
57234;BME280;43090;52.604;13.318;2023-07-13T05:42:25;100887.28;;;19.32;68.69
57234;BME280;43090;52.604;13.318;2023-07-13T05:44:51;100870.16;;;19.31;68.49
57234;BME280;43090;52.604;13.318;2023-07-13T05:47:18;100890.75;;;19.51;68.17
57234;BME280;43090;52.604;13.318;2023-07-13T05:49:45;100866.38;;;19.24;68.45
57234;BME280;43090;52.604;13.318;2023-07-13T05:52:11;100891.59;;;19.51;67.75
57234;BME280;43090;52.604;13.318;2023-07-13T05:54:38;100874.44;;;19.42;66.18
57234;BME280;43090;52.604;13.318;2023-07-13T05:57:05;100879.03;;;19.50;66.44
57234;BME280;43090;52.604;13.318;2023-07-13T05:59:31;100896.38;;;19.65;66.18
57234;BME280;43090;52.604;13.318;2023-07-13T06:01:58;100893.19;;;19.62;65.25
57234;BME280;43090;52.604;13.318;2023-07-13T06:04:25;100874.63;;;19.49;65.05
57234;BME280;43090;52.604;13.318;2023-07-13T06:06:51;100889.66;;;19.78;64.70
57234;BME280;43090;52.604;13.318;2023-07-13T06:09:18;100892.56;;;19.42;65.05
57234;BME280;43090;52.604;13.318;2023-07-13T06:11:44;100871.28;;;19.63;65.22
57234;BME280;43090;52.604;13.318;2023-07-13T06:14:11;100886.31;;;20.01;64.52
57234;BME280;43090;52.604;13.318;2023-07-13T06:16:39;100887.81;;;19.95;64.95
57234;BME280;43090;52.604;13.318;2023-07-13T06:19:06;100878.66;;;20.04;64.41
57234;BME280;43090;52.604;13.318;2023-07-13T06:21:33;100879.19;;;20.00;65.18
57234;BME280;43090;52.604;13.318;2023-07-13T06:23:59;100876.47;;;20.00;63.55
57234;BME280;43090;52.604;13.318;2023-07-13T06:26:26;100882.56;;;19.93;63.38
57234;BME280;43090;52.604;13.318;2023-07-13T06:28:52;100870.69;;;20.44;63.24
57234;BME280;43090;52.604;13.318;2023-07-13T06:31:19;100869.50;;;20.63;62.51
57234;BME280;43090;52.604;13.318;2023-07-13T06:33:45;100878.50;;;20.63;62.09
57234;BME280;43090;52.604;13.318;2023-07-13T06:36:12;100878.19;;;20.42;62.80
57234;BME280;43090;52.604;13.318;2023-07-13T06:38:39;100880.91;;;20.42;63.38
57234;BME280;43090;52.604;13.318;2023-07-13T06:41:07;100870.38;;;20.06;63.07
57234;BME280;43090;52.604;13.318;2023-07-13T06:43:34;100866.97;;;20.04;63.53
57234;BME280;43090;52.604;13.318;2023-07-13T06:46:00;100883.63;;;20.42;62.41
57234;BME280;43090;52.604;13.318;2023-07-13T06:48:27;100860.69;;;20.36;62.30
57234;BME280;43090;52.604;13.318;2023-07-13T06:50:54;100872.72;;;20.58;62.48
57234;BME280;43090;52.604;13.318;2023-07-13T06:53:22;100864.91;;;20.55;61.75
57234;BME280;43090;52.604;13.318;2023-07-13T06:55:49;100872.94;;;20.73;61.34
57234;BME280;43090;52.604;13.318;2023-07-13T06:58:18;100867.66;;;20.80;60.61
57234;BME280;43090;52.604;13.318;2023-07-13T07:00:46;100862.56;;;21.17;59.32
57234;BME280;43090;52.604;13.318;2023-07-13T07:03:13;100863.56;;;21.32;59.60
57234;BME280;43090;52.604;13.318;2023-07-13T07:05:40;100864.81;;;21.13;58.52
57234;BME280;43090;52.604;13.318;2023-07-13T07:08:06;100863.03;;;21.37;58.89
57234;BME280;43090;52.604;13.318;2023-07-13T07:10:33;100880.50;;;21.51;57.82
57234;BME280;43090;52.604;13.318;2023-07-13T07:12:59;100866.03;;;21.50;58.40
57234;BME280;43090;52.604;13.318;2023-07-13T07:15:26;100864.75;;;21.69;56.85
57234;BME280;43090;52.604;13.318;2023-07-13T07:17:53;100871.53;;;21.73;57.00
57234;BME280;43090;52.604;13.318;2023-07-13T07:20:19;100881.34;;;21.59;56.26
57234;BME280;43090;52.604;13.318;2023-07-13T07:22:47;100876.16;;;21.33;57.11
57234;BME280;43090;52.604;13.318;2023-07-13T07:25:13;100883.38;;;21.57;57.73
57234;BME280;43090;52.604;13.318;2023-07-13T07:27:40;100892.38;;;21.89;56.94
57234;BME280;43090;52.604;13.318;2023-07-13T07:30:10;100885.44;;;21.47;56.42
57234;BME280;43090;52.604;13.318;2023-07-13T07:32:39;100895.94;;;21.67;56.78
57234;BME280;43090;52.604;13.318;2023-07-13T07:35:09;100880.13;;;22.17;55.15
57234;BME280;43090;52.604;13.318;2023-07-13T07:37:35;100894.16;;;22.28;54.27
57234;BME280;43090;52.604;13.318;2023-07-13T07:40:06;100886.25;;;22.19;53.29
57234;BME280;43090;52.604;13.318;2023-07-13T07:42:35;100886.00;;;22.28;53.49
57234;BME280;43090;52.604;13.318;2023-07-13T07:45:02;100886.03;;;22.67;53.13
57234;BME280;43090;52.604;13.318;2023-07-13T07:47:29;100891.47;;;22.67;50.89
57234;BME280;43090;52.604;13.318;2023-07-13T07:49:56;100888.28;;;22.63;52.46
57234;BME280;43090;52.604;13.318;2023-07-13T07:52:22;100891.06;;;22.40;50.54
57234;BME280;43090;52.604;13.318;2023-07-13T07:54:49;100883.72;;;22.55;52.71
57234;BME280;43090;52.604;13.318;2023-07-13T07:57:18;100895.59;;;23.31;52.27
57234;BME280;43090;52.604;13.318;2023-07-13T08:00:05;100888.75;;;23.71;49.05
57234;BME280;43090;52.604;13.318;2023-07-13T08:02:35;100888.09;;;24.27;48.14
57234;BME280;43090;52.604;13.318;2023-07-13T08:05:04;100900.03;;;24.91;46.57
57234;BME280;43090;52.604;13.318;2023-07-13T08:07:35;100899.56;;;24.38;46.48
57234;BME280;43090;52.604;13.318;2023-07-13T08:10:02;100890.44;;;24.52;46.02
57234;BME280;43090;52.604;13.318;2023-07-13T08:12:28;100901.13;;;24.25;48.05
57234;BME280;43090;52.604;13.318;2023-07-13T08:14:57;100887.66;;;23.87;46.76
57234;BME280;43090;52.604;13.318;2023-07-13T08:17:24;100885.78;;;23.51;48.10
57234;BME280;43090;52.604;13.318;2023-07-13T08:19:52;100888.59;;;23.94;48.31
57234;BME280;43090;52.604;13.318;2023-07-13T08:22:19;100885.78;;;23.36;48.19
57234;BME280;43090;52.604;13.318;2023-07-13T08:24:45;100898.00;;;24.07;47.95
57234;BME280;43090;52.604;13.318;2023-07-13T08:27:13;100908.78;;;23.27;46.56
57234;BME280;43090;52.604;13.318;2023-07-13T08:29:40;100900.88;;;23.17;48.45
57234;BME280;43090;52.604;13.318;2023-07-13T08:32:07;100909.06;;;23.17;47.31
57234;BME280;43090;52.604;13.318;2023-07-13T08:34:37;100910.28;;;23.29;46.33
57234;BME280;43090;52.604;13.318;2023-07-13T08:37:04;100919.78;;;23.04;46.81
57234;BME280;43090;52.604;13.318;2023-07-13T08:39:31;100913.38;;;23.11;47.95
57234;BME280;43090;52.604;13.318;2023-07-13T08:42:04;100897.34;;;22.93;46.44
57234;BME280;43090;52.604;13.318;2023-07-13T08:44:44;100904.00;;;23.29;46.58
57234;BME280;43090;52.604;13.318;2023-07-13T08:47:16;100910.47;;;23.28;45.59
57234;BME280;43090;52.604;13.318;2023-07-13T08:49:44;100908.84;;;23.63;45.92
57234;BME280;43090;52.604;13.318;2023-07-13T08:52:20;100904.94;;;23.21;44.66
57234;BME280;43090;52.604;13.318;2023-07-13T08:54:52;100907.72;;;23.13;44.48
57234;BME280;43090;52.604;13.318;2023-07-13T08:57:23;100898.88;;;23.41;44.18
57234;BME280;43090;52.604;13.318;2023-07-13T08:59:54;100904.63;;;23.46;45.39
57234;BME280;43090;52.604;13.318;2023-07-13T09:05:02;100896.44;;;23.83;45.47
57234;BME280;43090;52.604;13.318;2023-07-13T09:15:23;100903.19;;;23.65;43.94
57234;BME280;43090;52.604;13.318;2023-07-13T09:17:54;100897.00;;;23.93;45.03
57234;BME280;43090;52.604;13.318;2023-07-13T09:20:30;100898.13;;;23.84;44.08
57234;BME280;43090;52.604;13.318;2023-07-13T09:23:04;100895.66;;;23.67;44.05
57234;BME280;43090;52.604;13.318;2023-07-13T09:25:34;100891.59;;;23.63;43.30
57234;BME280;43090;52.604;13.318;2023-07-13T09:28:20;100902.38;;;23.86;44.31
57234;BME280;43090;52.604;13.318;2023-07-13T09:33:20;100893.84;;;23.89;42.04
57234;BME280;43090;52.604;13.318;2023-07-13T09:35:47;100887.88;;;23.71;43.03
57234;BME280;43090;52.604;13.318;2023-07-13T09:38:16;100893.38;;;24.07;41.33
57234;BME280;43090;52.604;13.318;2023-07-13T09:41:04;100902.28;;;24.38;42.25
57234;BME280;43090;52.604;13.318;2023-07-13T09:43:36;100901.19;;;24.10;41.71
57234;BME280;43090;52.604;13.318;2023-07-13T09:46:02;100912.47;;;24.44;43.54
57234;BME280;43090;52.604;13.318;2023-07-13T09:48:35;100912.19;;;23.95;44.81
57234;BME280;43090;52.604;13.318;2023-07-13T09:51:13;100902.03;;;23.89;43.58
57234;BME280;43090;52.604;13.318;2023-07-13T09:53:42;100905.34;;;23.70;43.26
57234;BME280;43090;52.604;13.318;2023-07-13T09:56:26;100900.16;;;23.75;44.87
57234;BME280;43090;52.604;13.318;2023-07-13T09:58:53;100890.19;;;23.52;43.46
57234;BME280;43090;52.604;13.318;2023-07-13T10:01:36;100898.38;;;23.67;44.30
57234;BME280;43090;52.604;13.318;2023-07-13T10:04:14;100888.44;;;23.29;46.23
57234;BME280;43090;52.604;13.318;2023-07-13T10:06:46;100902.66;;;23.40;44.99
57234;BME280;43090;52.604;13.318;2023-07-13T10:09:16;100906.63;;;23.37;44.32
57234;BME280;43090;52.604;13.318;2023-07-13T10:11:43;100889.28;;;23.30;45.29
57234;BME280;43090;52.604;13.318;2023-07-13T10:16:40;100912.84;;;23.16;46.67
57234;BME280;43090;52.604;13.318;2023-07-13T10:19:19;100910.38;;;23.51;46.38
57234;BME280;43090;52.604;13.318;2023-07-13T10:22:15;100903.09;;;22.99;47.26
57234;BME280;43090;52.604;13.318;2023-07-13T10:24:47;100911.59;;;23.04;45.04
57234;BME280;43090;52.604;13.318;2023-07-13T10:27:19;100915.75;;;23.15;46.08
57234;BME280;43090;52.604;13.318;2023-07-13T10:29:58;100913.59;;;23.25;45.18
57234;BME280;43090;52.604;13.318;2023-07-13T10:32:27;100899.81;;;23.48;45.01
57234;BME280;43090;52.604;13.318;2023-07-13T10:34:54;100915.19;;;23.49;46.92
57234;BME280;43090;52.604;13.318;2023-07-13T10:37:26;100910.47;;;23.43;45.83
57234;BME280;43090;52.604;13.318;2023-07-13T10:39:55;100923.25;;;23.12;44.76
57234;BME280;43090;52.604;13.318;2023-07-13T10:42:28;100914.16;;;23.50;46.45
57234;BME280;43090;52.604;13.318;2023-07-13T10:44:55;100915.22;;;23.71;44.75
57234;BME280;43090;52.604;13.318;2023-07-13T10:47:22;100917.44;;;23.97;43.38
57234;BME280;43090;52.604;13.318;2023-07-13T10:49:51;100913.31;;;23.86;42.79
57234;BME280;43090;52.604;13.318;2023-07-13T10:52:41;100917.16;;;24.07;41.90
57234;BME280;43090;52.604;13.318;2023-07-13T10:55:39;100914.69;;;24.34;40.61
57234;BME280;43090;52.604;13.318;2023-07-13T11:01:12;100884.28;;;24.00;41.24
57234;BME280;43090;52.604;13.318;2023-07-13T11:18:51;100900.97;;;24.77;40.13
57234;BME280;43090;52.604;13.318;2023-07-13T11:21:21;100892.09;;;24.75;40.02
57234;BME280;43090;52.604;13.318;2023-07-13T11:31:42;100881.34;;;24.73;37.24
57234;BME280;43090;52.604;13.318;2023-07-13T11:34:13;100901.50;;;24.66;39.35
57234;BME280;43090;52.604;13.318;2023-07-13T11:36:44;100880.25;;;24.46;37.35
57234;BME280;43090;52.604;13.318;2023-07-13T11:39:17;100886.25;;;24.56;38.80
57234;BME280;43090;52.604;13.318;2023-07-13T11:41:53;100896.13;;;24.79;39.31
57234;BME280;43090;52.604;13.318;2023-07-13T11:44:25;100895.94;;;24.59;39.97
57234;BME280;43090;52.604;13.318;2023-07-13T11:46:54;100899.25;;;24.48;38.95
57234;BME280;43090;52.604;13.318;2023-07-13T11:49:26;100900.78;;;24.57;38.52
57234;BME280;43090;52.604;13.318;2023-07-13T11:51:58;100909.19;;;24.55;38.44
57234;BME280;43090;52.604;13.318;2023-07-13T11:54:31;100897.28;;;24.41;38.27
57234;BME280;43090;52.604;13.318;2023-07-13T11:57:15;100891.84;;;24.70;39.98
57234;BME280;43090;52.604;13.318;2023-07-13T11:59:46;100898.97;;;24.64;39.55
57234;BME280;43090;52.604;13.318;2023-07-13T12:02:17;100917.56;;;24.69;39.18
57234;BME280;43090;52.604;13.318;2023-07-13T12:04:50;100896.16;;;24.57;39.14
57234;BME280;43090;52.604;13.318;2023-07-13T12:07:19;100897.31;;;24.70;38.19
57234;BME280;43090;52.604;13.318;2023-07-13T12:09:46;100896.97;;;25.08;39.25
57234;BME280;43090;52.604;13.318;2023-07-13T12:12:16;100897.09;;;24.93;38.25
57234;BME280;43090;52.604;13.318;2023-07-13T12:14:43;100887.91;;;25.07;39.35
57234;BME280;43090;52.604;13.318;2023-07-13T12:17:20;100886.72;;;25.23;41.89
57234;BME280;43090;52.604;13.318;2023-07-13T12:19:48;100890.06;;;25.19;39.14
57234;BME280;43090;52.604;13.318;2023-07-13T12:22:18;100889.66;;;25.15;38.45
57234;BME280;43090;52.604;13.318;2023-07-13T12:24:46;100906.50;;;25.19;37.85
57234;BME280;43090;52.604;13.318;2023-07-13T12:27:22;100898.50;;;25.17;38.51
57234;BME280;43090;52.604;13.318;2023-07-13T12:30:04;100893.22;;;25.16;38.89
57234;BME280;43090;52.604;13.318;2023-07-13T12:32:31;100896.59;;;25.53;39.78
57234;BME280;43090;52.604;13.318;2023-07-13T12:35:13;100895.38;;;25.69;38.47
57234;BME280;43090;52.604;13.318;2023-07-13T12:37:44;100887.34;;;25.60;39.20
57234;BME280;43090;52.604;13.318;2023-07-13T12:40:17;100882.19;;;25.44;38.36
57234;BME280;43090;52.604;13.318;2023-07-13T12:42:49;100891.78;;;25.26;38.38
57234;BME280;43090;52.604;13.318;2023-07-13T12:45:20;100901.84;;;25.48;39.21
57234;BME280;43090;52.604;13.318;2023-07-13T12:47:49;100891.78;;;25.26;37.90
57234;BME280;43090;52.604;13.318;2023-07-13T12:50:19;100877.78;;;25.43;39.16
57234;BME280;43090;52.604;13.318;2023-07-13T12:52:54;100874.22;;;25.49;38.25
57234;BME280;43090;52.604;13.318;2023-07-13T12:55:23;100882.69;;;25.61;37.23
57234;BME280;43090;52.604;13.318;2023-07-13T12:57:51;100894.72;;;25.18;36.45
57234;BME280;43090;52.604;13.318;2023-07-13T13:00:27;100887.31;;;25.19;35.67
57234;BME280;43090;52.604;13.318;2023-07-13T13:02:56;100892.03;;;25.32;36.85
57234;BME280;43090;52.604;13.318;2023-07-13T13:05:49;100868.28;;;25.39;38.13
57234;BME280;43090;52.604;13.318;2023-07-13T13:08:35;100868.09;;;25.47;37.15
57234;BME280;43090;52.604;13.318;2023-07-13T13:11:04;100866.34;;;24.98;37.81
57234;BME280;43090;52.604;13.318;2023-07-13T13:13:39;100876.94;;;25.07;36.10
57234;BME280;43090;52.604;13.318;2023-07-13T13:16:10;100890.50;;;25.22;37.46
57234;BME280;43090;52.604;13.318;2023-07-13T13:18:38;100868.63;;;25.29;37.18
57234;BME280;43090;52.604;13.318;2023-07-13T13:21:04;100895.78;;;25.59;37.90
57234;BME280;43090;52.604;13.318;2023-07-13T13:23:31;100883.31;;;25.50;38.38
57234;BME280;43090;52.604;13.318;2023-07-13T13:25:58;100868.53;;;25.09;39.78
57234;BME280;43090;52.604;13.318;2023-07-13T13:28:25;100882.78;;;24.98;37.58
57234;BME280;43090;52.604;13.318;2023-07-13T13:30:55;100884.44;;;25.27;39.70
57234;BME280;43090;52.604;13.318;2023-07-13T13:33:27;100887.56;;;25.24;37.88
57234;BME280;43090;52.604;13.318;2023-07-13T13:35:53;100912.16;;;25.39;38.67
57234;BME280;43090;52.604;13.318;2023-07-13T13:38:25;100879.09;;;25.19;39.20
57234;BME280;43090;52.604;13.318;2023-07-13T13:40:52;100878.84;;;25.14;37.04
57234;BME280;43090;52.604;13.318;2023-07-13T13:43:24;100868.69;;;25.36;37.42
57234;BME280;43090;52.604;13.318;2023-07-13T13:45:57;100886.03;;;25.50;39.63
57234;BME280;43090;52.604;13.318;2023-07-13T13:48:30;100884.13;;;25.50;37.93